Milano Acc/com

LIMM · Lombardy, 意大利

罗盘
风向 的 风向 070° Milano Acc/com 18/36
风: 4 kt, 2 beaufort

1 kt

4 kt
改变
0 ft 2.000 4.000 6.000 8.000 10.000
Cloud Cloud
FEW 3.000
Cloud Cloud Cloud Cloud
SCT 6.000
METAR LIML 250420Z 07004KT 9999 FEW030 SCT060 25/19 Q1012 NOSIG

METAR Milano Acc/com - LIMM

Milano Acc/com是,意大利中的未知。 该机场位于纬度45,43333和经度9,28333。 该机场有2条跑道: 18/36 和 4/22. 本场的ICAO机场代码为LIMM。 机场在Milano FIR中。

该航空气象观测是针对Milano Linate Airport在2024年7月25日 06:20, 当地时间进行的。

机场观察

风向为070°,速度为4 kt。

可见度为10 km 或者更多。

有几云在3.000 ft的高度 和 疏云,零星散落的云朵在6.000 ft的高度。 没有观察到天花板。

温度和风寒是25 °C。 露点为19 °C,相对湿度为69%。 海平面上的气压为1012 hPa (QNH)。

白天

今天,太阳从05:59升起,在20:59降落。 这适用于Milano Acc/com,世界夏令时可能有所不同。 当地时间与世界标准时间之间的时差为+2 小时。 夏令时目前正在进行中。

公司介绍

我们没有关于这个机场的公司信息。

体会

到Vliegles.nl去找飞行课程,跳伞和其他飞行体验。 浏览页面,了解Milano Acc/com附近所有可用的活动。 你也可以使用搜索功能来寻找你所在地附近的特定飞行课程、跳伞或其他飞行体验。

跑道

Id 标题 侧风 逆风 侧风 %
18/36 180°-360° 4 kt 1 kt 94 %
4/22 040°-220° 2 kt 3 kt 50 %

逆风成分最大的方向会被突出显示,并用于横风计算。 这并不一定意味着这个方向在使用。

乌云

3.000 ft FEW 几云
6.000 ft SCT 疏云,零星散落的云朵

温度 & 天气

温度 25 °C
露点 19 °C
相对湿度 69%
Kp-index 1 (0-9)

白天

日出
05:59
中午
13:29
日落
20:59 (14:00)

小工具

你想在你的网站上有一个关于Milano Acc/com的当前航空天气(METAR)的小部件吗?

显示HTML代码
报告变更